createdAt,value
2018-09-26T00:00:56.283Z,9.50
2018-09-26T00:03:28.328Z,9.40
2018-09-26T00:05:55.958Z,9.40
2018-09-26T00:08:23.501Z,9.30
2018-09-26T00:10:51.397Z,9.30
2018-09-26T00:13:18.942Z,9.30
2018-09-26T00:15:46.684Z,9.30
2018-09-26T00:18:14.798Z,9.20
2018-09-26T00:20:42.381Z,9.20
2018-09-26T00:23:09.929Z,9.20
2018-09-26T00:25:37.576Z,9.10
2018-09-26T00:28:05.853Z,9.10
2018-09-26T00:30:33.633Z,9.10
2018-09-26T00:33:01.303Z,9.10
2018-09-26T00:35:29.016Z,9.00
2018-09-26T00:37:56.551Z,9.00
2018-09-26T00:40:24.102Z,9.00
2018-09-26T00:42:51.989Z,9.00
2018-09-26T00:45:19.553Z,8.90
2018-09-26T00:47:47.189Z,8.90
2018-09-26T00:50:14.884Z,8.90
2018-09-26T00:52:42.534Z,8.90
2018-09-26T00:55:10.129Z,8.90
2018-09-26T00:57:37.765Z,8.80
2018-09-26T01:00:05.560Z,8.80
2018-09-26T01:02:33.097Z,8.70
2018-09-26T01:05:00.904Z,8.70
2018-09-26T01:07:28.467Z,8.70
2018-09-26T01:09:56.247Z,8.70
2018-09-26T01:12:23.815Z,8.60
2018-09-26T01:14:51.374Z,8.60
2018-09-26T01:17:19.258Z,8.60
2018-09-26T01:19:46.848Z,8.50
2018-09-26T01:22:14.413Z,8.50
2018-09-26T01:24:42.049Z,8.50
2018-09-26T01:27:09.637Z,8.50
2018-09-26T01:29:37.276Z,8.40
2018-09-26T01:32:08.602Z,8.40
2018-09-26T01:34:36.115Z,8.40
2018-09-26T01:37:03.920Z,8.30
2018-09-26T01:39:31.732Z,8.30
2018-09-26T01:41:59.373Z,8.30
2018-09-26T01:44:26.984Z,8.30
2018-09-26T01:46:54.833Z,8.20
2018-09-26T01:49:22.454Z,8.20
2018-09-26T01:51:50.018Z,8.20
2018-09-26T01:54:17.842Z,8.20
2018-09-26T01:56:45.428Z,8.10
2018-09-26T01:59:12.985Z,8.10
2018-09-26T02:01:41.028Z,8.10
2018-09-26T02:04:08.556Z,8.10
2018-09-26T02:06:36.116Z,8.10
2018-09-26T02:09:07.634Z,8.00
2018-09-26T02:11:35.200Z,8.00
2018-09-26T02:14:02.860Z,8.00
2018-09-26T02:16:30.731Z,7.90
2018-09-26T02:18:58.320Z,7.90
2018-09-26T02:21:25.879Z,7.90
2018-09-26T02:23:53.504Z,7.80
2018-09-26T02:26:21.063Z,7.80
2018-09-26T02:28:48.648Z,7.80
2018-09-26T02:31:16.516Z,7.70
2018-09-26T02:33:44.261Z,7.70
2018-09-26T02:36:13.099Z,7.70
2018-09-26T02:38:40.645Z,7.70
2018-09-26T02:41:08.200Z,7.70
2018-09-26T02:43:36.072Z,7.60
2018-09-26T02:46:03.659Z,7.60
2018-09-26T02:48:37.456Z,7.60
2018-09-26T02:51:05.100Z,7.60
2018-09-26T02:53:32.715Z,7.60
2018-09-26T02:56:00.777Z,7.50
2018-09-26T02:58:28.349Z,7.50
2018-09-26T03:00:55.952Z,7.50
2018-09-26T03:03:23.662Z,7.50
2018-09-26T03:05:51.502Z,7.50
2018-09-26T03:08:19.057Z,7.50
2018-09-26T03:10:46.679Z,7.50
2018-09-26T03:13:16.518Z,7.40
2018-09-26T03:15:44.084Z,7.40
2018-09-26T03:18:11.995Z,7.40
2018-09-26T03:20:39.543Z,7.40
2018-09-26T03:23:30.506Z,7.40
2018-09-26T03:26:07.008Z,7.40
2018-09-26T03:28:34.880Z,7.40
2018-09-26T05:53:56.918Z,8.60
2018-09-26T05:56:24.658Z,8.60
2018-09-26T05:58:52.573Z,9.10
2018-09-26T06:01:20.160Z,9.50
2018-09-26T06:03:47.744Z,10.00
2018-09-26T06:06:15.560Z,10.40
2018-09-26T06:08:43.154Z,10.80
2018-09-26T06:11:10.746Z,11.20
2018-09-26T06:13:38.869Z,11.50
2018-09-26T06:16:06.950Z,11.80
2018-09-26T06:18:34.532Z,12.00
2018-09-26T06:21:02.485Z,12.20
2018-09-26T06:23:30.081Z,12.40
2018-09-26T06:25:57.629Z,12.50
2018-09-26T06:28:25.489Z,12.60
2018-09-26T06:30:53.064Z,12.80
2018-09-26T06:33:20.778Z,12.90
2018-09-26T06:35:48.593Z,13.20
2018-09-26T06:38:16.188Z,13.50
2018-09-26T06:40:43.769Z,13.90
2018-09-26T06:43:11.730Z,14.20
2018-09-26T06:45:39.369Z,14.60
2018-09-26T06:48:06.921Z,15.00
2018-09-26T06:50:34.723Z,15.40
2018-09-26T06:53:02.264Z,15.70
2018-09-26T06:55:29.918Z,15.90
2018-09-26T06:57:57.738Z,16.10
2018-09-26T07:00:25.485Z,16.30
2018-09-26T07:02:53.025Z,16.40
2018-09-26T07:05:20.929Z,16.60
2018-09-26T07:10:24.660Z,16.70
2018-09-26T07:12:52.233Z,17.10
2018-09-26T07:15:19.803Z,17.30
2018-09-26T07:17:48.119Z,17.40
2018-09-26T07:20:15.667Z,17.40
2018-09-26T07:22:43.513Z,17.40
2018-09-26T07:25:11.093Z,17.30
2018-09-26T07:27:38.681Z,17.20
2018-09-26T07:30:06.691Z,17.20
2018-09-26T07:32:34.250Z,17.10
2018-09-26T07:35:01.816Z,17.10
2018-09-26T07:37:29.605Z,17.10
2018-09-26T07:39:57.224Z,17.20
2018-09-26T07:42:24.790Z,17.30
2018-09-26T07:44:52.481Z,17.50
2018-09-26T07:47:20.029Z,17.70
2018-09-26T07:49:47.540Z,17.90
2018-09-26T07:52:15.391Z,18.30
2018-09-26T07:54:42.929Z,18.70
2018-09-26T07:57:10.532Z,19.00
2018-09-26T07:59:38.408Z,19.40
2018-09-26T08:02:05.996Z,19.90
2018-09-26T08:04:33.503Z,20.20
2018-09-26T08:07:01.901Z,20.70
2018-09-26T08:09:29.465Z,21.10
2018-09-26T08:11:57.007Z,21.40
2018-09-26T08:14:24.930Z,21.70
2018-09-26T08:16:52.498Z,21.90
2018-09-26T08:19:20.534Z,22.20
2018-09-26T08:21:48.077Z,22.50
2018-09-26T08:24:15.640Z,22.80
2018-09-26T08:26:43.229Z,23.10
2018-09-26T08:29:10.808Z,23.40
2018-09-26T08:31:38.440Z,23.70
2018-09-26T08:34:06.638Z,24.00
2018-09-26T08:36:34.253Z,24.20
2018-09-26T08:39:01.797Z,24.50
2018-09-26T08:41:29.672Z,24.80
2018-09-26T08:43:57.224Z,25.00
2018-09-26T08:46:24.748Z,25.20
2018-09-26T08:48:52.441Z,25.40
2018-09-26T08:51:19.976Z,25.50
2018-09-26T08:53:47.543Z,25.50
2018-09-26T08:56:15.569Z,25.60
2018-09-26T08:58:43.129Z,25.70
2018-09-26T09:01:16.692Z,25.90
2018-09-26T09:03:44.244Z,26.10
2018-09-26T09:06:11.798Z,26.30
2018-09-26T09:08:39.825Z,26.50
2018-09-26T09:11:07.377Z,26.70
2018-09-26T09:13:34.940Z,26.80
2018-09-26T09:16:02.758Z,26.80
2018-09-26T09:18:30.305Z,26.70
2018-09-26T09:20:58.508Z,26.50
2018-09-26T09:23:26.241Z,26.30
2018-09-26T09:25:53.796Z,26.10
2018-09-26T09:28:21.365Z,26.10
2018-09-26T09:30:49.257Z,26.00
2018-09-26T09:35:50.515Z,26.10
2018-09-26T09:38:18.076Z,26.30
2018-09-26T09:40:45.577Z,26.40
2018-09-26T09:43:13.532Z,26.60
2018-09-26T09:45:41.105Z,26.70
2018-09-26T09:48:08.651Z,26.70
2018-09-26T09:50:36.639Z,26.70
2018-09-26T09:53:04.205Z,26.80
2018-09-26T09:55:31.777Z,26.90
2018-09-26T09:57:59.542Z,27.00
2018-09-26T10:00:32.926Z,27.10
2018-09-26T10:03:00.973Z,27.20
2018-09-26T10:05:28.495Z,27.40
2018-09-26T10:07:56.373Z,27.50
2018-09-26T10:10:24.716Z,27.70
2018-09-26T10:12:52.257Z,27.80
2018-09-26T10:15:19.832Z,27.80
2018-09-26T10:17:47.629Z,27.90
2018-09-26T10:20:15.234Z,27.90
2018-09-26T10:22:43.104Z,28.00
2018-09-26T10:25:11.083Z,28.10
2018-09-26T10:27:38.674Z,28.10
2018-09-26T10:30:06.890Z,28.10
2018-09-26T10:32:34.765Z,28.00
2018-09-26T10:35:02.499Z,28.00
2018-09-26T10:37:30.067Z,28.00
2018-09-26T10:39:57.762Z,27.90
2018-09-26T10:42:25.302Z,27.80
2018-09-26T10:44:52.829Z,27.80
2018-09-26T10:47:20.653Z,27.70
2018-09-26T10:49:48.756Z,27.70
2018-09-26T10:52:16.328Z,27.70
2018-09-26T10:54:44.149Z,27.70
2018-09-26T10:57:11.661Z,27.70
2018-09-26T10:59:39.172Z,27.70
2018-09-26T11:02:07.286Z,27.60
2018-09-26T11:04:34.829Z,27.50
2018-09-26T11:07:02.371Z,27.50
2018-09-26T11:09:30.116Z,27.40
2018-09-26T11:11:57.629Z,27.30
2018-09-26T11:14:25.321Z,27.30
2018-09-26T11:16:53.086Z,27.20
2018-09-26T11:19:20.682Z,27.10
2018-09-26T11:21:48.197Z,27.10
2018-09-26T11:24:16.702Z,27.10
2018-09-26T11:26:44.415Z,27.10
2018-09-26T11:29:12.009Z,27.10
2018-09-26T11:31:39.788Z,27.10
2018-09-26T11:34:07.423Z,27.10
2018-09-26T11:36:35.237Z,27.20
2018-09-26T11:39:03.909Z,27.20
2018-09-26T11:41:31.512Z,27.30
2018-09-26T11:43:59.219Z,27.30
2018-09-26T11:46:26.773Z,27.30
2018-09-26T11:48:54.288Z,27.30
2018-09-26T11:51:22.141Z,27.30
2018-09-26T11:53:49.772Z,27.30
2018-09-26T11:56:17.320Z,27.20
2018-09-26T11:58:44.882Z,27.20
2018-09-26T12:01:12.917Z,27.20
2018-09-26T12:03:40.487Z,27.10
2018-09-26T12:06:08.121Z,27.10
2018-09-26T12:08:35.826Z,27.00
2018-09-26T12:11:03.375Z,26.90
2018-09-26T12:13:30.898Z,26.80
2018-09-26T12:15:58.534Z,26.70
2018-09-26T12:18:26.147Z,26.60
2018-09-26T12:20:53.661Z,26.60
2018-09-26T12:23:21.427Z,26.50
2018-09-26T12:25:49.100Z,26.50
2018-09-26T12:28:16.894Z,26.50
2018-09-26T12:30:44.393Z,26.50
2018-09-26T12:33:12.054Z,26.50
2018-09-26T12:35:39.681Z,26.40
2018-09-26T12:38:07.249Z,26.40
2018-09-26T12:40:34.819Z,26.30
2018-09-26T12:43:02.462Z,26.30
2018-09-26T12:45:30.021Z,26.20
2018-09-26T12:47:57.552Z,26.10
2018-09-26T12:50:25.465Z,26.10
2018-09-26T12:52:53.408Z,26.00
2018-09-26T12:55:21.408Z,26.00
2018-09-26T12:57:49.173Z,26.00
2018-09-26T13:00:16.763Z,26.00
2018-09-26T13:02:44.340Z,26.00
2018-09-26T13:05:14.322Z,26.00
2018-09-26T13:07:41.978Z,26.10
2018-09-26T13:10:09.579Z,26.20
2018-09-26T13:12:37.423Z,26.20
2018-09-26T13:15:05.737Z,26.30
2018-09-26T13:17:33.623Z,26.40
2018-09-26T13:20:01.155Z,26.50
2018-09-26T13:22:28.694Z,26.50
2018-09-26T13:24:56.323Z,26.50
2018-09-26T13:27:25.239Z,26.50
2018-09-26T13:29:52.778Z,26.50
2018-09-26T13:32:20.640Z,26.50
2018-09-26T13:34:48.128Z,26.50
2018-09-26T13:37:15.715Z,26.50
2018-09-26T13:39:43.825Z,26.50
2018-09-26T13:42:11.444Z,26.50
2018-09-26T13:44:38.917Z,26.40
2018-09-26T13:47:06.613Z,26.40
2018-09-26T13:49:35.301Z,26.30
2018-09-26T13:52:03.058Z,26.20
2018-09-26T13:54:31.913Z,26.20
2018-09-26T13:56:59.453Z,26.10
2018-09-26T13:59:27.177Z,26.00
2018-09-26T14:01:54.826Z,25.90
2018-09-26T14:04:22.561Z,25.90
2018-09-26T14:06:50.294Z,25.80
2018-09-26T14:09:17.917Z,25.70
2018-09-26T14:11:45.470Z,25.70
2018-09-26T14:14:13.437Z,25.60
2018-09-26T14:16:40.933Z,25.60
2018-09-26T14:19:08.512Z,25.50
2018-09-26T14:21:38.043Z,25.40
2018-09-26T14:24:06.372Z,25.40
2018-09-26T14:26:34.721Z,25.30
2018-09-26T14:29:03.401Z,25.30
2018-09-26T14:31:31.991Z,25.20
2018-09-26T14:33:59.914Z,25.20
2018-09-26T14:36:28.143Z,25.10
2018-09-26T14:38:56.835Z,25.10
2018-09-26T14:41:25.499Z,25.00
2018-09-26T14:43:53.479Z,24.90
2018-09-26T14:46:21.377Z,24.80
2018-09-26T14:48:49.559Z,24.80
2018-09-26T14:51:17.592Z,24.60
2018-09-26T14:53:45.604Z,24.60
2018-09-26T14:56:13.670Z,24.50
2018-09-26T14:58:41.583Z,24.40
2018-09-26T15:01:09.874Z,24.20
2018-09-26T15:03:38.153Z,24.10
2018-09-26T15:06:06.128Z,24.00
2018-09-26T15:08:34.239Z,23.90
2018-09-26T15:11:02.170Z,23.80
2018-09-26T15:13:30.106Z,23.80
2018-09-26T15:15:58.401Z,23.60
2018-09-26T15:18:26.345Z,23.60
2018-09-26T15:20:54.289Z,23.50
2018-09-26T15:23:22.534Z,23.50
2018-09-26T15:25:50.442Z,23.40
2018-09-26T15:28:18.397Z,23.20
2018-09-26T15:30:47.493Z,23.20
2018-09-26T15:33:15.461Z,23.10
2018-09-26T15:35:43.400Z,23.10
2018-09-26T15:38:11.826Z,23.00
2018-09-26T15:41:59.051Z,23.00
2018-09-26T15:44:27.395Z,22.90
2018-09-26T15:46:55.334Z,22.80
2018-09-26T15:49:23.473Z,22.70
2018-09-26T15:51:51.496Z,22.70
2018-09-26T15:54:19.526Z,22.60
2018-09-26T15:56:47.675Z,22.50
2018-09-26T15:59:15.654Z,22.40
2018-09-26T16:01:43.620Z,22.40
2018-09-26T16:04:24.644Z,22.30
2018-09-26T16:06:52.264Z,22.30
2018-09-26T16:09:20.202Z,22.20
2018-09-26T16:11:47.757Z,22.20
2018-09-26T16:14:15.401Z,22.10
2018-09-26T16:16:43.315Z,22.00
2018-09-26T16:19:10.971Z,22.00
2018-09-26T16:21:38.520Z,21.90
2018-09-26T16:24:06.395Z,21.80
2018-09-26T16:26:33.925Z,21.80
2018-09-26T16:29:01.661Z,21.70
2018-09-26T16:31:29.748Z,21.70
2018-09-26T16:33:57.287Z,21.60
2018-09-26T16:36:25.364Z,21.60
2018-09-26T16:38:52.815Z,21.50
2018-09-26T16:41:20.475Z,21.40
2018-09-26T16:43:48.384Z,21.30
2018-09-26T16:46:16.000Z,21.20
2018-09-26T16:48:43.749Z,21.20
2018-09-26T16:51:11.492Z,21.10
2018-09-26T16:53:39.166Z,21.00
2018-09-26T16:56:07.083Z,20.90
2018-09-26T16:58:35.004Z,20.90
2018-09-26T17:01:02.581Z,20.80
2018-09-26T17:03:30.162Z,20.70
2018-09-26T17:05:57.759Z,20.60
2018-09-26T17:08:25.369Z,20.50
2018-09-26T17:10:52.968Z,20.50
2018-09-26T17:13:20.565Z,20.40
2018-09-26T17:15:48.496Z,20.30
2018-09-26T17:18:16.230Z,20.30
2018-09-26T17:20:43.758Z,20.20
2018-09-26T17:23:11.809Z,20.10
2018-09-26T17:25:39.424Z,20.10
2018-09-26T17:28:07.021Z,20.00
2018-09-26T17:30:34.570Z,19.90
2018-09-26T17:33:02.613Z,19.80
2018-09-26T17:35:30.514Z,19.80
2018-09-26T17:37:58.228Z,19.70
2018-09-26T17:40:25.813Z,19.60
2018-09-26T17:42:53.462Z,19.60
2018-09-26T17:45:21.055Z,19.50
2018-09-26T17:47:48.590Z,19.50
2018-09-26T17:50:16.243Z,19.40
2018-09-26T17:52:43.818Z,19.40
2018-09-26T17:55:11.445Z,19.30
2018-09-26T17:57:39.224Z,19.20
2018-09-26T18:00:07.258Z,19.10
2018-09-26T18:02:34.889Z,19.10
2018-09-26T18:05:11.937Z,19.00
2018-09-26T18:07:39.877Z,19.00
2018-09-26T18:10:28.980Z,18.90
2018-09-26T18:12:56.560Z,18.80
2018-09-26T18:15:24.164Z,18.70
2018-09-26T18:17:51.965Z,18.70
2018-09-26T18:20:19.549Z,18.60
2018-09-26T18:22:47.158Z,18.50
2018-09-26T18:25:14.872Z,18.40
2018-09-26T18:27:42.538Z,18.40
2018-09-26T18:30:10.072Z,18.30
2018-09-26T18:32:38.493Z,18.20
2018-09-26T18:35:06.240Z,18.20
2018-09-26T18:37:34.105Z,18.10
2018-09-26T18:40:01.903Z,18.10
2018-09-26T18:42:29.506Z,18.00
2018-09-26T18:44:57.075Z,18.00
2018-09-26T18:47:24.777Z,17.90
2018-09-26T18:49:52.369Z,17.80
2018-09-26T18:52:19.972Z,17.80
2018-09-26T18:54:47.914Z,17.70
2018-09-26T18:57:15.512Z,17.80
2018-09-26T18:59:43.261Z,17.70
2018-09-26T19:02:10.845Z,17.60
2018-09-26T19:04:38.464Z,17.60
2018-09-26T19:07:06.119Z,17.50
2018-09-26T19:09:35.238Z,17.50
2018-09-26T19:12:02.848Z,17.50
2018-09-26T19:14:30.374Z,17.40
2018-09-26T19:16:58.349Z,17.40
2018-09-26T19:19:25.937Z,17.40
2018-09-26T19:21:53.568Z,17.30
2018-09-26T19:24:21.349Z,17.30
2018-09-26T19:26:48.992Z,17.20
2018-09-26T19:29:16.584Z,17.20
2018-09-26T19:31:44.453Z,17.20
2018-09-26T19:34:12.057Z,17.20
2018-09-26T19:36:40.000Z,17.10
2018-09-26T19:39:09.219Z,17.10
2018-09-26T19:41:36.748Z,17.10
2018-09-26T19:44:04.628Z,17.00
2018-09-26T19:46:32.209Z,17.00
2018-09-26T19:48:59.812Z,17.00
2018-09-26T19:51:27.735Z,16.90
2018-09-26T19:53:55.339Z,16.90
2018-09-26T19:56:23.335Z,16.90
2018-09-26T19:58:50.886Z,16.80
2018-09-26T20:01:18.505Z,16.80
2018-09-26T20:03:46.347Z,16.80
2018-09-26T20:06:13.927Z,16.70
2018-09-26T20:08:41.495Z,16.70
2018-09-26T20:11:09.514Z,16.70
2018-09-26T20:13:37.098Z,16.60
2018-09-26T20:16:04.665Z,16.60
2018-09-26T20:18:32.503Z,16.50
2018-09-26T20:21:00.127Z,16.50
2018-09-26T20:23:27.922Z,16.40
2018-09-26T20:25:55.401Z,16.40
2018-09-26T20:28:23.008Z,16.40
2018-09-26T20:30:50.689Z,16.30
2018-09-26T20:33:18.518Z,16.30
2018-09-26T20:35:46.136Z,16.20
2018-09-26T20:38:13.704Z,16.20
2018-09-26T20:40:42.417Z,16.10
2018-09-26T20:43:09.986Z,16.10
2018-09-26T20:45:37.673Z,16.00
2018-09-26T20:48:05.517Z,16.00
2018-09-26T20:50:33.110Z,15.90
2018-09-26T20:53:00.696Z,15.90
2018-09-26T20:55:28.733Z,15.80
2018-09-26T20:57:56.334Z,15.80
2018-09-26T21:00:23.978Z,15.70
2018-09-26T21:02:51.732Z,15.70
2018-09-26T22:09:24.430Z,16.40
2018-09-26T22:11:52.055Z,16.50
2018-09-26T22:14:19.778Z,16.50
2018-09-26T22:16:47.356Z,16.50
2018-09-26T22:19:15.043Z,16.50
2018-09-26T22:21:42.868Z,16.60
2018-09-26T22:24:10.472Z,16.60
2018-09-26T22:26:38.049Z,16.60
2018-09-26T22:29:05.712Z,16.60
2018-09-26T22:31:33.341Z,16.60
2018-09-26T22:34:00.946Z,16.60
2018-09-26T22:36:28.585Z,16.60
2018-09-26T22:38:56.103Z,16.60
2018-09-26T22:41:24.229Z,16.70
2018-09-26T22:43:51.989Z,16.70
2018-09-26T22:46:19.626Z,16.80
2018-09-26T22:48:47.195Z,16.80
2018-09-26T22:51:14.926Z,16.90
2018-09-26T22:53:42.509Z,17.00
2018-09-26T22:56:10.057Z,17.10
2018-09-26T22:58:37.925Z,17.10
2018-09-26T23:01:05.513Z,17.20
2018-09-26T23:03:33.140Z,17.30
2018-09-26T23:06:01.314Z,17.40
2018-09-26T23:08:28.873Z,17.40
2018-09-26T23:10:56.485Z,17.50
2018-09-26T23:13:24.331Z,17.60
2018-09-26T23:15:51.975Z,17.60
2018-09-26T23:18:20.107Z,17.70
2018-09-26T23:20:47.705Z,17.80
2018-09-26T23:23:15.515Z,17.80
2018-09-26T23:25:43.161Z,17.80
2018-09-26T23:28:10.744Z,17.90
2018-09-26T23:30:38.304Z,17.90
2018-09-26T23:33:05.829Z,18.00
2018-09-26T23:35:33.639Z,18.00
2018-09-26T23:38:01.273Z,18.00
2018-09-26T23:40:28.868Z,18.00
2018-09-26T23:42:56.475Z,18.00
2018-09-26T23:45:34.645Z,18.10
2018-09-26T23:48:08.716Z,18.10
2018-09-26T23:50:36.297Z,18.10
2018-09-26T23:53:07.232Z,18.10
2018-09-26T23:55:36.093Z,18.00
2018-09-26T23:58:11.236Z,18.10
